KSTL/STL METAR and TAF weather

Enter ICAO airport designator
Station Type Date Time Source
KSTL METAR 2018/05/22 12:51 UTC NOAA

KSTL 221251Z 28004KT 10SM FEW035 BKN250 22/18 A3005 RMK AO2 SLP166 T02220178


Station Type Date Time Source
KSTL Decoded METAR 2018/05/22 12:51 UTC NOAA

LAMBERT-ST LOUIS INTERNATIONAL AIRPORT , MO, United States (KSTL) 38-45N 90-22W 171M
May 22, 2018 - 08:51 AM EDT / 2018.05.22 1251 UTC
Wind: from the W (280 degrees) at 5 MPH (4 KT):0
Visibility: 10 mile(s):0
Sky conditions: mostly cloudy
Temperature: 72.0 F (22.2 C)
Dew Point: 64.0 F (17.8 C)
Relative Humidity: 76%
Pressure (altimeter): 30.05 in. Hg (1017 hPa)
ob: KSTL 221251Z 28004KT 10SM FEW035 BKN250 22/18 A3005 RMK AO2 SLP166 T02220178
cycle: 13

Station Type Date Time Source
KSTL TAF 2018/05/22 12:33 UTC NOAA

TAF KSTL 221130Z 2212/2318 VRB03KT P6SM SCT250
FM230000 01005KT P6SM SKC
FM230700 09004KT P6SM FEW250


Example: see airport list